createdAt,value
2022-08-17T00:00:33.261Z,98289.56
2022-08-17T00:03:37.438Z,98292.19
2022-08-17T00:06:27.754Z,98276.56
2022-08-17T00:09:00.985Z,98285.50
2022-08-17T00:11:42.444Z,98278.50
2022-08-17T00:14:29.793Z,98297.59
2022-08-17T00:16:57.786Z,98296.00
2022-08-17T00:19:26.122Z,98282.31
2022-08-17T00:22:32.060Z,98290.75
2022-08-17T00:24:44.365Z,98283.22
2022-08-17T00:27:11.186Z,98262.97
2022-08-17T00:29:38.012Z,98275.19
2022-08-17T00:33:12.510Z,98268.06
2022-08-17T00:34:51.910Z,98271.00
2022-08-17T00:37:18.765Z,98276.09
2022-08-17T00:39:45.655Z,98259.31
2022-08-17T00:42:18.919Z,98270.59
2022-08-17T00:44:46.425Z,98268.97
2022-08-17T00:47:14.295Z,98251.00
2022-08-17T00:49:41.245Z,98244.91
2022-08-17T00:52:16.490Z,98264.06
2022-08-17T00:54:47.501Z,98260.38
2022-08-17T00:57:23.870Z,98268.44
2022-08-17T01:00:06.966Z,98256.25
2022-08-17T01:02:42.163Z,98272.63
2022-08-17T01:05:18.466Z,98271.28
2022-08-17T01:07:48.179Z,98253.75
2022-08-17T01:10:57.287Z,98253.75
2022-08-17T01:13:25.596Z,98268.06
2022-08-17T01:16:06.881Z,98258.13
2022-08-17T01:18:34.791Z,98254.84
2022-08-17T01:21:15.543Z,98259.47
2022-08-17T01:23:42.415Z,98262.56
2022-08-17T01:26:09.243Z,98256.72
2022-08-17T01:28:54.203Z,98243.09
2022-08-17T01:31:25.273Z,98267.22
2022-08-17T01:33:52.647Z,98255.38
2022-08-17T01:36:19.525Z,98261.44
2022-08-17T01:38:46.365Z,98246.28
2022-08-17T01:41:16.336Z,98261.34
2022-08-17T01:43:57.312Z,98266.25
2022-08-17T01:46:36.540Z,98267.03
2022-08-17T01:49:11.507Z,98255.34
2022-08-17T01:51:39.058Z,98264.06
2022-08-17T01:54:12.714Z,98274.25
2022-08-17T01:56:47.392Z,98264.66
2022-08-17T01:59:15.787Z,98266.28
2022-08-17T02:01:43.572Z,98273.47
2022-08-17T02:04:11.567Z,98264.06
2022-08-17T02:06:52.734Z,98271.53
2022-08-17T02:09:25.916Z,98278.13
2022-08-17T02:11:56.362Z,98260.19
2022-08-17T02:14:24.036Z,98265.47
2022-08-17T02:16:51.820Z,98269.66
2022-08-17T02:19:19.653Z,98276.66
2022-08-17T02:21:51.002Z,98273.63
2022-08-17T02:24:58.006Z,98272.53
2022-08-17T02:27:14.691Z,98275.31
2022-08-17T02:29:41.522Z,98273.53
2022-08-17T02:32:27.412Z,98273.09
2022-08-17T02:34:58.526Z,98256.25
2022-08-17T02:37:27.315Z,98286.75
2022-08-17T02:39:56.874Z,98278.25
2022-08-17T02:42:35.493Z,98280.97
2022-08-17T02:45:05.590Z,98287.34
2022-08-17T02:47:32.425Z,98251.19
2022-08-17T02:49:59.247Z,98267.63
2022-08-17T02:52:43.020Z,98282.94
2022-08-17T02:55:34.690Z,98290.22
2022-08-17T02:58:03.595Z,98286.94
2022-08-17T03:00:38.248Z,98293.44
2022-08-17T03:03:07.959Z,98296.78
2022-08-17T03:05:37.525Z,98294.84
2022-08-17T03:08:06.044Z,98301.78
2022-08-17T03:10:33.886Z,98294.84
2022-08-17T03:13:01.624Z,98293.75
2022-08-17T03:15:33.440Z,98300.13
2022-08-17T03:18:01.710Z,98295.16
2022-08-17T03:20:31.512Z,98295.16
2022-08-17T03:23:01.887Z,98281.63
2022-08-17T03:25:38.227Z,98293.91
2022-08-17T03:28:06.925Z,98297.94
2022-08-17T03:30:34.640Z,98292.94
2022-08-17T03:33:09.896Z,98283.00
2022-08-17T03:35:40.322Z,98289.09
2022-08-17T03:38:08.790Z,98295.16
2022-08-17T03:40:56.705Z,98285.66
2022-08-17T03:43:23.193Z,98292.41
2022-08-17T03:46:27.103Z,98288.25
2022-08-17T03:49:13.360Z,98305.66
2022-08-17T03:51:58.994Z,98313.94
2022-08-17T03:54:44.094Z,98299.31
2022-08-17T03:57:11.982Z,98310.66
2022-08-17T03:59:39.491Z,98325.00
2022-08-17T04:02:26.178Z,98336.88
2022-08-17T04:04:53.837Z,98345.97
2022-08-17T04:07:24.753Z,98340.88
2022-08-17T04:09:51.787Z,98341.41
2022-08-17T04:12:21.959Z,98357.00
2022-08-17T04:14:52.715Z,98363.50
2022-08-17T04:17:27.651Z,98357.56
2022-08-17T04:19:55.802Z,98355.09
2022-08-17T04:22:30.250Z,98316.16
2022-08-17T04:25:10.210Z,98350.13
2022-08-17T04:27:37.140Z,98356.59
2022-08-17T04:30:07.188Z,98355.91
2022-08-17T04:33:03.902Z,98352.22
2022-08-17T04:35:49.019Z,98356.03
2022-08-17T04:38:20.339Z,98362.81
2022-08-17T04:41:06.733Z,98344.19
2022-08-17T04:43:35.246Z,98365.56
2022-08-17T04:46:12.553Z,98371.53
2022-08-17T04:48:43.520Z,98373.84
2022-08-17T04:51:20.216Z,98379.66
2022-08-17T04:53:54.354Z,98372.75
2022-08-17T04:56:23.953Z,98385.03
2022-08-17T04:58:53.720Z,98390.16
2022-08-17T05:01:24.099Z,98387.09
2022-08-17T05:03:53.997Z,98391.28
2022-08-17T05:06:21.566Z,98403.00
2022-08-17T05:08:48.436Z,98398.03
2022-08-17T05:11:15.799Z,98406.03
2022-08-17T05:13:42.654Z,98403.41
2022-08-17T05:16:09.693Z,98400.66
2022-08-17T05:18:38.743Z,98388.47
2022-08-17T05:21:06.786Z,98385.06
2022-08-17T05:23:42.487Z,98400.09
2022-08-17T05:26:22.603Z,98381.88
2022-08-17T05:29:02.500Z,98387.41
2022-08-17T05:31:30.737Z,98362.97
2022-08-17T05:33:57.967Z,98357.84
2022-08-17T05:36:43.349Z,98363.09
2022-08-17T05:39:16.249Z,98392.50
2022-08-17T05:41:43.918Z,98374.69
2022-08-17T05:44:10.963Z,98385.31
2022-08-17T05:46:41.929Z,98380.19
2022-08-17T05:49:09.615Z,98377.19
2022-08-17T05:52:07.856Z,98377.88
2022-08-17T05:55:22.295Z,98381.75
2022-08-17T05:58:27.343Z,98400.66
2022-08-17T06:01:12.846Z,98404.78
2022-08-17T06:04:11.209Z,98400.38
2022-08-17T06:06:56.460Z,98396.81
2022-08-17T06:09:40.484Z,98413.06
2022-08-17T06:12:30.683Z,98415.56
2022-08-17T06:15:50.891Z,98409.75
2022-08-17T06:18:20.521Z,98407.97
2022-08-17T06:20:56.915Z,98410.84
2022-08-17T06:24:06.752Z,98422.84
2022-08-17T06:26:42.783Z,98434.16
2022-08-17T06:29:37.777Z,98441.59
2022-08-17T06:32:08.579Z,98426.84
2022-08-17T06:34:37.438Z,98429.84
2022-08-17T06:37:48.808Z,98433.13
2022-08-17T06:40:48.334Z,98426.63
2022-08-17T06:43:40.221Z,98411.44
2022-08-17T06:46:27.482Z,98446.69
2022-08-17T06:49:21.929Z,98443.47
2022-08-17T06:51:57.590Z,98437.41
2022-08-17T06:54:36.353Z,98446.06
2022-08-17T06:57:22.481Z,98434.72
2022-08-17T06:59:56.847Z,98436.34
2022-08-17T07:02:59.525Z,98431.63
2022-08-17T07:05:36.626Z,98421.50
2022-08-17T07:08:35.144Z,98430.59
2022-08-17T07:11:09.958Z,98424.94
2022-08-17T07:14:03.925Z,98430.97
2022-08-17T07:16:36.351Z,98422.63
2022-08-17T07:19:07.283Z,98408.50
2022-08-17T07:22:05.940Z,98418.97
2022-08-17T07:24:48.837Z,98415.06
2022-08-17T07:27:22.434Z,98391.84
2022-08-17T07:30:21.173Z,98406.22
2022-08-17T07:33:13.517Z,98409.31
2022-08-17T07:35:44.937Z,98411.38
2022-08-17T07:38:26.823Z,98414.06
2022-08-17T07:41:03.479Z,98410.16
2022-08-17T07:43:32.980Z,98411.34
2022-08-17T07:46:39.794Z,98396.75
2022-08-17T07:49:09.382Z,98405.03
2022-08-17T07:51:47.656Z,98406.13
2022-08-17T07:54:23.236Z,98412.28
2022-08-17T07:56:57.849Z,98412.81
2022-08-17T07:59:33.899Z,98414.16
2022-08-17T08:02:06.726Z,98408.59
2022-08-17T08:05:02.130Z,98422.13
2022-08-17T08:07:42.352Z,98401.03
2022-08-17T08:10:13.673Z,98414.69
2022-08-17T08:12:47.795Z,98410.38
2022-08-17T08:15:21.756Z,98416.63
2022-08-17T08:17:59.273Z,98396.44
2022-08-17T08:21:09.997Z,98424.09
2022-08-17T08:23:37.016Z,98434.03
2022-08-17T08:26:39.288Z,98430.19
2022-08-17T08:29:39.773Z,98429.81
2022-08-17T08:32:40.472Z,98436.84
2022-08-17T08:35:16.857Z,98436.50
2022-08-17T08:38:02.929Z,98442.47
2022-08-17T08:41:13.341Z,98414.00
2022-08-17T08:43:52.209Z,98443.78
2022-08-17T08:47:00.306Z,98453.34
2022-08-17T08:50:05.578Z,98448.56
2022-08-17T08:53:04.429Z,98457.84
2022-08-17T08:55:56.036Z,98443.16
2022-08-17T08:58:53.481Z,98450.75
2022-08-17T09:01:49.856Z,98455.38
2022-08-17T09:04:44.976Z,98453.69
2022-08-17T09:07:50.357Z,98444.81
2022-08-17T09:10:49.658Z,98451.91
2022-08-17T09:13:39.250Z,98431.09
2022-08-17T09:16:36.041Z,98439.53
2022-08-17T09:19:53.153Z,98447.13
2022-08-17T09:22:31.386Z,98443.31
2022-08-17T09:25:09.340Z,98460.00
2022-08-17T09:28:03.680Z,98467.97
2022-08-17T09:30:46.184Z,98477.06
2022-08-17T09:33:22.734Z,98482.88
2022-08-17T09:36:16.284Z,98473.47
2022-08-17T09:39:07.310Z,98483.75
2022-08-17T09:41:51.980Z,98473.69
2022-08-17T09:44:31.211Z,98488.88
2022-08-17T09:47:20.895Z,98492.16
2022-08-17T09:49:54.149Z,98486.97
2022-08-17T09:52:28.770Z,98483.88
2022-08-17T09:54:57.810Z,98479.91
2022-08-17T09:58:08.852Z,98478.63
2022-08-17T10:00:41.059Z,98478.13
2022-08-17T10:03:32.357Z,98460.66
2022-08-17T10:06:13.323Z,98481.31
2022-08-17T10:09:06.551Z,98469.41
2022-08-17T10:12:09.315Z,98480.13
2022-08-17T10:15:08.123Z,98478.00
2022-08-17T10:18:19.916Z,98494.50
2022-08-17T10:21:20.200Z,98487.44
2022-08-17T10:24:13.753Z,98498.63
2022-08-17T10:26:55.908Z,98490.19
2022-08-17T10:29:48.546Z,98496.00
2022-08-17T10:32:41.100Z,98491.03
2022-08-17T10:35:43.483Z,98515.50
2022-08-17T10:38:39.306Z,98508.56
2022-08-17T10:41:43.623Z,98512.22
2022-08-17T10:44:47.681Z,98513.34
2022-08-17T10:47:18.237Z,98527.41
2022-08-17T10:49:53.867Z,98541.97
2022-08-17T10:52:21.887Z,98554.69
2022-08-17T10:55:18.131Z,98533.53
2022-08-17T10:57:49.561Z,98530.06
2022-08-17T11:00:43.030Z,98537.50
2022-08-17T11:03:23.520Z,98544.09
2022-08-17T11:06:01.047Z,98540.28
2022-08-17T11:08:57.408Z,98543.91
2022-08-17T11:11:45.305Z,98537.75
2022-08-17T11:14:26.006Z,98525.16
2022-08-17T11:17:15.686Z,98531.44
2022-08-17T11:20:07.259Z,98516.84
2022-08-17T11:23:02.674Z,98509.59
2022-08-17T11:25:40.172Z,98526.84
2022-08-17T11:28:18.064Z,98531.47
2022-08-17T11:30:57.011Z,98542.91
2022-08-17T11:33:30.385Z,98554.66
2022-08-17T11:36:46.642Z,98547.56
2022-08-17T11:39:33.198Z,98539.78
2022-08-17T11:42:38.857Z,98545.06
2022-08-17T11:45:44.993Z,98558.97
2022-08-17T11:49:08.509Z,98569.38
2022-08-17T11:52:01.469Z,98569.72
2022-08-17T11:54:34.175Z,98565.91
2022-08-17T11:57:27.176Z,98561.94
2022-08-17T11:59:55.129Z,98572.19
2022-08-17T12:02:34.804Z,98565.94
2022-08-17T12:05:22.910Z,98559.81
2022-08-17T12:08:04.519Z,98552.06
2022-08-17T12:10:36.023Z,98550.22
2022-08-17T12:13:11.398Z,98544.75
2022-08-17T12:15:48.566Z,98513.63
2022-08-17T12:18:32.314Z,98517.53
2022-08-17T12:21:21.047Z,98516.41
2022-08-17T12:24:10.252Z,98533.19
2022-08-17T12:26:37.655Z,98526.53
2022-08-17T12:29:18.427Z,98523.53
2022-08-17T12:32:02.205Z,98498.38
2022-08-17T12:34:40.779Z,98499.63
2022-08-17T12:37:32.393Z,98504.84
2022-08-17T12:40:28.008Z,98490.72
2022-08-17T12:43:02.058Z,98500.50
2022-08-17T12:45:39.391Z,98491.88
2022-08-17T12:48:16.887Z,98485.53
2022-08-17T12:50:46.031Z,98480.47
2022-08-17T12:53:23.596Z,98475.97
2022-08-17T12:55:51.291Z,98475.59
2022-08-17T12:58:37.914Z,98455.63
2022-08-17T13:01:09.804Z,98456.03
2022-08-17T13:03:51.476Z,98433.78
2022-08-17T13:06:34.600Z,98434.69
2022-08-17T13:09:17.921Z,98437.63
2022-08-17T13:11:56.213Z,98433.63
2022-08-17T13:14:23.049Z,98425.75
2022-08-17T13:16:56.086Z,98422.72
2022-08-17T13:19:40.539Z,98403.66
2022-08-17T13:22:15.308Z,98402.94
2022-08-17T13:25:03.538Z,98407.88
2022-08-17T13:27:30.879Z,98407.50
2022-08-17T13:30:08.335Z,98411.53
2022-08-17T13:32:46.416Z,98402.19
2022-08-17T13:35:40.566Z,98401.66
2022-08-17T13:38:39.417Z,98398.06
2022-08-17T13:41:07.434Z,98396.72
2022-08-17T13:43:45.349Z,98391.28
2022-08-17T13:46:20.662Z,98383.53
2022-08-17T13:49:06.291Z,98397.69
2022-08-17T13:51:49.440Z,98377.00
2022-08-17T13:54:28.252Z,98391.06
2022-08-17T13:57:00.931Z,98393.47
2022-08-17T13:59:53.422Z,98391.75
2022-08-17T14:02:21.536Z,98373.22
2022-08-17T14:04:48.836Z,98385.53
2022-08-17T14:07:16.036Z,98381.19
2022-08-17T14:10:07.418Z,98364.94
2022-08-17T14:12:38.703Z,98371.25
2022-08-17T14:15:06.709Z,98351.75
2022-08-17T14:17:38.092Z,98341.19
2022-08-17T14:20:09.551Z,98344.00
2022-08-17T14:22:39.540Z,98327.88
2022-08-17T14:25:08.577Z,98326.97
2022-08-17T14:27:43.600Z,98326.34
2022-08-17T14:30:23.804Z,98329.19
2022-08-17T14:32:52.328Z,98325.72
2022-08-17T14:35:22.549Z,98333.88
2022-08-17T14:37:50.677Z,98334.75
2022-08-17T14:40:20.682Z,98329.84
2022-08-17T14:42:48.063Z,98331.69
2022-08-17T14:45:29.592Z,98324.09
2022-08-17T14:48:04.034Z,98330.88
2022-08-17T14:50:32.012Z,98327.78
2022-08-17T14:53:03.804Z,98329.78
2022-08-17T14:55:31.121Z,98334.69
2022-08-17T14:57:58.432Z,98322.34
2022-08-17T15:00:26.720Z,98326.50
2022-08-17T15:02:58.570Z,98331.81
2022-08-17T15:05:31.767Z,98315.38
2022-08-17T15:08:00.932Z,98326.50
2022-08-17T15:10:29.371Z,98317.47
2022-08-17T15:12:56.512Z,98336.75
2022-08-17T15:15:24.429Z,98334.72
2022-08-17T15:17:51.948Z,98335.00
2022-08-17T15:20:27.522Z,98338.91
2022-08-17T15:22:58.727Z,98318.84
2022-08-17T15:25:28.867Z,98333.63
2022-08-17T15:27:56.147Z,98325.63
2022-08-17T15:30:24.115Z,98330.75
2022-08-17T15:32:55.309Z,98324.78
2022-08-17T15:35:30.142Z,98314.78
2022-08-17T15:38:10.176Z,98305.31
2022-08-17T15:40:42.937Z,98317.22
2022-08-17T15:43:26.424Z,98311.66
2022-08-17T15:46:14.987Z,98312.28
2022-08-17T15:48:44.747Z,98310.81
2022-08-17T15:51:32.403Z,98318.00
2022-08-17T15:54:22.147Z,98314.72
2022-08-17T15:56:49.563Z,98304.84
2022-08-17T15:59:16.360Z,98297.44
2022-08-17T16:03:15.300Z,98306.25
2022-08-17T16:04:31.646Z,98294.19
2022-08-17T16:06:59.923Z,98303.69
2022-08-17T16:09:27.459Z,98281.66
2022-08-17T16:11:56.155Z,98290.00
2022-08-17T16:14:33.870Z,98302.66
2022-08-17T16:17:03.352Z,98281.78
2022-08-17T16:19:30.630Z,98286.88
2022-08-17T16:21:57.445Z,98279.38
2022-08-17T16:24:24.266Z,98270.50
2022-08-17T16:26:51.087Z,98286.44
2022-08-17T16:29:17.897Z,98278.78
2022-08-17T16:31:44.744Z,98266.84
2022-08-17T16:34:16.838Z,98288.47
2022-08-17T16:36:55.127Z,98268.53
2022-08-17T16:39:28.901Z,98280.63
2022-08-17T16:41:56.441Z,98281.81
2022-08-17T16:44:23.586Z,98273.63
2022-08-17T16:46:50.681Z,98265.41
2022-08-17T16:49:36.200Z,98267.38
2022-08-17T16:52:07.240Z,98265.69
2022-08-17T16:54:35.487Z,98279.22
2022-08-17T16:57:04.937Z,98272.19
2022-08-17T16:59:41.042Z,98279.72
2022-08-17T17:02:14.358Z,98279.47
2022-08-17T17:04:56.347Z,98273.31
2022-08-17T17:08:14.447Z,98261.47
2022-08-17T17:10:50.870Z,98269.00
2022-08-17T17:13:25.461Z,98268.56
2022-08-17T17:16:12.100Z,98273.03
2022-08-17T17:19:11.922Z,98281.41
2022-08-17T17:21:56.831Z,98252.63
2022-08-17T17:24:41.415Z,98269.63
2022-08-17T17:27:29.515Z,98272.03
2022-08-17T17:30:05.192Z,98281.63
2022-08-17T17:32:41.685Z,98275.53
2022-08-17T17:35:34.576Z,98272.88
2022-08-17T17:38:12.551Z,98269.78
2022-08-17T17:40:50.111Z,98271.16
2022-08-17T17:43:40.116Z,98264.28
2022-08-17T17:46:27.039Z,98270.50
2022-08-17T17:48:55.183Z,98251.78
2022-08-17T17:52:08.874Z,98248.69
2022-08-17T17:54:56.553Z,98264.16
2022-08-17T17:57:42.037Z,98257.31
2022-08-17T18:00:15.015Z,98248.03
2022-08-17T18:03:08.847Z,98259.66
2022-08-17T18:05:53.643Z,98247.88
2022-08-17T18:09:04.880Z,98268.91
2022-08-17T18:11:53.925Z,98268.63
2022-08-17T18:14:51.438Z,98263.00
2022-08-17T18:17:18.441Z,98279.38
2022-08-17T18:19:45.265Z,98279.91
2022-08-17T18:22:22.067Z,98273.75
2022-08-17T18:24:57.106Z,98277.41
2022-08-17T18:27:38.660Z,98267.94
2022-08-17T18:30:14.437Z,98273.22
2022-08-17T18:32:43.613Z,98267.28
2022-08-17T18:35:16.133Z,98274.31
2022-08-17T18:37:53.158Z,98263.19
2022-08-17T18:40:20.091Z,98273.88
2022-08-17T18:43:08.751Z,98280.00
2022-08-17T18:45:48.915Z,98274.97
2022-08-17T18:48:26.679Z,98290.97
2022-08-17T18:50:58.739Z,98290.88
2022-08-17T18:53:41.182Z,98298.34
2022-08-17T18:56:27.621Z,98298.91
2022-08-17T18:59:05.935Z,98296.44
2022-08-17T19:01:54.470Z,98294.69
2022-08-17T19:04:39.676Z,98299.38
2022-08-17T19:07:26.687Z,98307.75
2022-08-17T19:10:14.766Z,98314.16
2022-08-17T19:13:28.112Z,98324.66
2022-08-17T19:16:27.781Z,98317.22
2022-08-17T19:19:12.512Z,98313.75
2022-08-17T19:21:53.024Z,98310.50
2022-08-17T19:24:24.333Z,98314.00
2022-08-17T19:27:16.574Z,98324.94
2022-08-17T19:29:57.553Z,98320.63
2022-08-17T19:32:34.642Z,98328.94
2022-08-17T19:35:05.145Z,98328.28
2022-08-17T19:38:02.649Z,98320.44
2022-08-17T19:41:02.704Z,98325.34
2022-08-17T19:43:53.750Z,98309.00
2022-08-17T19:47:17.178Z,98304.91
2022-08-17T19:50:08.687Z,98296.56
2022-08-17T19:52:53.928Z,98312.00
2022-08-17T19:55:48.434Z,98316.84
2022-08-17T19:59:01.067Z,98314.56
2022-08-17T20:01:49.290Z,98310.41
2022-08-17T20:04:41.048Z,98303.19
2022-08-17T20:07:14.032Z,98291.47
2022-08-17T20:10:06.760Z,98307.38
2022-08-17T20:12:39.608Z,98317.16
2022-08-17T20:15:24.824Z,98316.03
2022-08-17T20:17:52.211Z,98310.28
2022-08-17T20:20:35.274Z,98323.03
2022-08-17T20:23:28.221Z,98316.38
2022-08-17T20:26:19.415Z,98316.44
2022-08-17T20:29:14.461Z,98320.72
2022-08-17T20:31:55.238Z,98325.06
2022-08-17T20:34:33.715Z,98323.44
2022-08-17T20:37:13.217Z,98336.00
2022-08-17T20:40:05.611Z,98332.69
2022-08-17T20:42:34.034Z,98331.25
2022-08-17T20:45:20.686Z,98330.09
2022-08-17T20:48:21.630Z,98340.22
2022-08-17T20:50:51.651Z,98332.69
2022-08-17T20:53:53.894Z,98352.66
2022-08-17T20:56:46.373Z,98354.63
2022-08-17T20:59:30.282Z,98363.94
2022-08-17T21:02:21.907Z,98367.06
2022-08-17T21:04:52.763Z,98378.81
2022-08-17T21:07:42.911Z,98377.50
2022-08-17T21:10:25.498Z,98380.34
2022-08-17T21:13:16.308Z,98376.03
2022-08-17T21:16:21.578Z,98377.53
2022-08-17T21:19:31.070Z,98379.34
2022-08-17T21:22:40.417Z,98386.31
2022-08-17T21:25:22.464Z,98392.75
2022-08-17T21:28:07.473Z,98390.75
2022-08-17T21:30:39.803Z,98394.75
2022-08-17T21:33:31.556Z,98386.63
2022-08-17T21:36:13.406Z,98403.81
2022-08-17T21:38:53.369Z,98411.94
2022-08-17T21:41:30.705Z,98428.09
2022-08-17T21:44:21.739Z,98439.81
2022-08-17T21:46:52.310Z,98439.34
2022-08-17T21:49:26.306Z,98468.91
2022-08-17T21:51:56.957Z,98445.78
2022-08-17T21:54:35.651Z,98483.94
2022-08-17T21:57:06.642Z,98465.47
2022-08-17T21:59:39.901Z,98493.50
2022-08-17T22:02:24.579Z,98507.91
2022-08-17T22:05:13.735Z,98527.19
2022-08-17T22:08:08.686Z,98554.63
2022-08-17T22:10:48.360Z,98554.09
2022-08-17T22:13:23.224Z,98569.44
2022-08-17T22:16:28.060Z,98546.63
2022-08-17T22:18:58.073Z,98567.72
2022-08-17T22:21:25.552Z,98580.56
2022-08-17T22:24:06.920Z,98598.72
2022-08-17T22:27:08.569Z,98590.97
2022-08-17T22:29:53.361Z,98596.75
2022-08-17T22:32:47.032Z,98602.03
2022-08-17T22:35:29.216Z,98610.13
2022-08-17T22:37:57.448Z,98610.56
2022-08-17T22:40:32.797Z,98639.34
2022-08-17T22:43:03.299Z,98647.44
2022-08-17T22:45:31.101Z,98634.66
2022-08-17T22:48:00.370Z,98654.59
2022-08-17T22:50:31.008Z,98660.06
2022-08-17T22:53:21.813Z,98661.53
2022-08-17T22:56:14.092Z,98679.50
2022-08-17T22:59:16.323Z,98685.72
2022-08-17T23:02:05.753Z,98673.09
2022-08-17T23:04:39.203Z,98678.00
2022-08-17T23:07:08.629Z,98687.09
2022-08-17T23:09:35.878Z,98686.94
2022-08-17T23:12:11.548Z,98696.22
2022-08-17T23:14:45.340Z,98706.84
2022-08-17T23:17:13.404Z,98681.28
2022-08-17T23:19:40.571Z,98688.78
2022-08-17T23:22:10.798Z,98685.59
2022-08-17T23:24:48.848Z,98662.69
2022-08-17T23:27:16.704Z,98641.50
2022-08-17T23:29:43.831Z,98655.31
2022-08-17T23:32:14.590Z,98670.88
2022-08-17T23:34:43.573Z,98673.81
2022-08-17T23:37:12.037Z,98669.97
2022-08-17T23:39:39.623Z,98671.13
2022-08-17T23:42:09.689Z,98659.38
2022-08-17T23:44:38.686Z,98655.38
2022-08-17T23:47:06.396Z,98682.72
2022-08-17T23:49:34.172Z,98682.28
2022-08-17T23:52:05.309Z,98688.09
2022-08-17T23:54:43.560Z,98691.16
2022-08-17T23:57:17.708Z,98680.75
2022-08-17T23:59:44.870Z,98670.69
